Time;durP1;ratioP1;P1;durP2;ratioP2;P2;SDS_P1;SDS_P2;PMS_P1;PMS_P2;Temp;Humidity;BMP_temperature;BMP_pressure;BME280_temperature;BME280_humidity;BME280_pressure;Samples;Min_cycle;Max_cycle;Signal;HPM_P1;HPM_P2
2023/06/30 00:00:36;;;;;;;0.00;0.00;;;;;;;;;;5060971;28;20269;-77
2023/06/30 00:03:03;;;;;;;0.00;0.00;;;;;;;;;;5091312;28;20207;-77
2023/06/30 00:05:30;;;;;;;0.10;0.10;;;;;;;;;;5061153;28;20261;-76
2023/06/30 00:07:58;;;;;;;0.00;0.00;;;;;;;;;;5091239;28;20459;-77
2023/06/30 00:10:24;;;;;;;0.00;0.00;;;;;;;;;;5059165;28;20212;-77
2023/06/30 00:12:51;;;;;;;0.10;0.10;;;;;;;;;;5092825;28;20452;-77
2023/06/30 00:15:19;;;;;;;0.10;0.10;;;;;;;;;;5056759;28;20243;-86
2023/06/30 00:17:48;;;;;;;0.00;0.00;;;;;;;;;;5095497;28;20235;-84
2023/06/30 00:20:14;;;;;;;1.20;1.15;;;;;;;;;;5057406;28;20216;-83
2023/06/30 00:22:41;;;;;;;0.00;0.00;;;;;;;;;;5097228;28;20226;-83
2023/06/30 00:25:07;;;;;;;0.00;0.00;;;;;;;;;;5065948;28;20281;-79
2023/06/30 00:27:34;;;;;;;0.00;0.00;;;;;;;;;;5098909;28;20216;-83
2023/06/30 00:30:00;;;;;;;0.00;0.00;;;;;;;;;;5067901;28;20272;-82
2023/06/30 00:32:31;;;;;;;0.00;0.00;;;;;;;;;;5088982;28;20238;-82
2023/06/30 00:34:57;;;;;;;0.00;0.00;;;;;;;;;;5065931;28;20195;-82
2023/06/30 00:37:24;;;;;;;0.10;0.10;;;;;;;;;;5087853;28;20250;-82
2023/06/30 00:39:50;;;;;;;0.00;0.00;;;;;;;;;;5065980;28;20275;-82
2023/06/30 00:42:17;;;;;;;0.10;0.10;;;;;;;;;;5087868;28;20257;-83
2023/06/30 00:44:43;;;;;;;0.10;0.10;;;;;;;;;;5065666;28;20456;-83
2023/06/30 00:47:10;;;;;;;0.00;0.00;;;;;;;;;;5087620;28;20480;-83
2023/06/30 00:49:37;;;;;;;0.00;0.00;;;;;;;;;;5065270;28;20214;-83
2023/06/30 00:52:04;;;;;;;0.00;0.00;;;;;;;;;;5086358;28;20484;-82
2023/06/30 00:54:31;;;;;;;0.00;0.00;;;;;;;;;;5066181;28;20246;-83
2023/06/30 00:56:59;;;;;;;0.00;0.00;;;;;;;;;;5084341;28;20477;-83
2023/06/30 00:59:26;;;;;;;0.00;0.00;;;;;;;;;;5067421;28;20262;-82
2023/06/30 01:01:54;;;;;;;0.00;0.00;;;;;;;;;;5082960;28;20317;-82
2023/06/30 01:04:24;;;;;;;0.00;0.00;;;;;;;;;;5068306;28;20215;-82
2023/06/30 01:06:57;;;;;;;0.00;0.00;;;;;;;;;;5082789;28;20242;-82
2023/06/30 01:09:25;;;;;;;0.00;0.00;;;;;;;;;;5067886;28;20279;-82
2023/06/30 01:11:52;;;;;;;0.00;0.00;;;;;;;;;;5082657;28;20702;-82
2023/06/30 01:14:19;;;;;;;0.00;0.00;;;;;;;;;;5068910;28;20214;-82
2023/06/30 01:16:46;;;;;;;0.50;0.50;;;;;;;;;;5080778;28;20494;-82
2023/06/30 01:19:19;;;;;;;0.25;0.25;;;;;;;;;;5070506;28;20207;-82
2023/06/30 01:21:47;;;;;;;0.00;0.00;;;;;;;;;;5080710;28;20313;-82
2023/06/30 01:24:17;;;;;;;0.10;0.10;;;;;;;;;;5069847;28;20207;-81
2023/06/30 01:26:43;;;;;;;0.00;0.00;;;;;;;;;;5079270;28;20309;-81
2023/06/30 01:29:10;;;;;;;0.00;0.00;;;;;;;;;;5071253;28;20276;-81
2023/06/30 01:31:36;;;;;;;0.00;0.00;;;;;;;;;;5078140;28;20242;-82
2023/06/30 01:34:03;;;;;;;0.00;0.00;;;;;;;;;;5072426;28;20228;-82
2023/06/30 01:36:30;;;;;;;0.32;0.32;;;;;;;;;;5075994;28;20231;-82
2023/06/30 01:38:56;;;;;;;0.00;0.00;;;;;;;;;;5074803;28;20427;-81
2023/06/30 01:41:24;;;;;;;6.13;4.65;;;;;;;;;;5074547;28;20625;-81
2023/06/30 01:43:51;;;;;;;0.00;0.00;;;;;;;;;;5076818;28;20375;-82
2023/06/30 01:46:17;;;;;;;0.00;0.00;;;;;;;;;;5072973;28;20253;-82
2023/06/30 01:48:44;;;;;;;1.95;1.85;;;;;;;;;;5078041;28;20497;-82
2023/06/30 01:51:11;;;;;;;0.10;0.10;;;;;;;;;;5071165;28;20238;-82
2023/06/30 01:53:39;;;;;;;0.00;0.00;;;;;;;;;;5079237;28;20206;-82
2023/06/30 01:56:05;;;;;;;0.00;0.00;;;;;;;;;;5069699;28;20416;-82
2023/06/30 01:58:33;;;;;;;0.00;0.00;;;;;;;;;;5080861;28;20283;-82
2023/06/30 02:00:59;;;;;;;0.00;0.00;;;;;;;;;;5067775;28;20313;-82
2023/06/30 02:03:25;;;;;;;0.05;0.05;;;;;;;;;;5082378;28;20246;-82
2023/06/30 02:05:52;;;;;;;0.00;0.00;;;;;;;;;;5066074;28;20310;-82
2023/06/30 02:08:18;;;;;;;0.00;0.00;;;;;;;;;;5084360;28;20271;-81
2023/06/30 02:10:45;;;;;;;0.00;0.00;;;;;;;;;;5063774;28;20273;-82
2023/06/30 02:13:11;;;;;;;0.00;0.00;;;;;;;;;;5086565;28;20213;-82
2023/06/30 02:15:39;;;;;;;0.00;0.00;;;;;;;;;;5061909;28;20239;-82
2023/06/30 02:18:05;;;;;;;0.00;0.00;;;;;;;;;;5087874;28;20238;-82
2023/06/30 02:20:32;;;;;;;0.00;0.00;;;;;;;;;;5060227;28;20265;-82
2023/06/30 02:22:58;;;;;;;0.00;0.00;;;;;;;;;;5089737;28;20396;-82
2023/06/30 02:25:25;;;;;;;0.00;0.00;;;;;;;;;;5058658;28;20204;-82
2023/06/30 02:27:52;;;;;;;0.00;0.00;;;;;;;;;;5091618;28;20238;-82
2023/06/30 02:30:19;;;;;;;0.00;0.00;;;;;;;;;;5057294;28;20271;-82
2023/06/30 02:32:47;;;;;;;0.00;0.00;;;;;;;;;;5092745;28;20214;-82
2023/06/30 02:35:14;;;;;;;0.00;0.00;;;;;;;;;;5055721;28;20235;-81
2023/06/30 02:37:40;;;;;;;0.00;0.00;;;;;;;;;;5095421;28;20248;-82
2023/06/30 02:40:08;;;;;;;0.20;0.20;;;;;;;;;;5068005;28;20228;-82
2023/06/30 02:42:34;;;;;;;0.20;0.20;;;;;;;;;;5076498;28;20212;-82
2023/06/30 02:45:01;;;;;;;0.08;0.08;;;;;;;;;;5088035;28;20206;-82
2023/06/30 02:47:27;;;;;;;0.10;0.10;;;;;;;;;;5093111;28;20320;-81
2023/06/30 02:49:55;;;;;;;0.00;0.00;;;;;;;;;;5087750;28;20242;-82
2023/06/30 02:52:21;;;;;;;0.00;0.00;;;;;;;;;;5093019;28;20242;-81
2023/06/30 02:54:47;;;;;;;0.00;0.00;;;;;;;;;;5087441;28;20237;-81
2023/06/30 02:57:14;;;;;;;1.35;1.35;;;;;;;;;;5092297;28;20245;-81
2023/06/30 02:59:40;;;;;;;0.08;0.08;;;;;;;;;;5087854;28;20290;-81
2023/06/30 03:02:07;;;;;;;0.08;0.08;;;;;;;;;;5092369;28;20313;-81
2023/06/30 03:04:33;;;;;;;0.00;0.00;;;;;;;;;;5087722;28;20230;-82
2023/06/30 03:07:01;;;;;;;0.00;0.00;;;;;;;;;;5091290;28;20316;-81
2023/06/30 03:09:27;;;;;;;0.00;0.00;;;;;;;;;;5088182;28;20214;-81
2023/06/30 03:11:53;;;;;;;0.10;0.10;;;;;;;;;;5091169;28;20238;-82
2023/06/30 03:14:20;;;;;;;0.00;0.00;;;;;;;;;;5089223;28;20234;-81
2023/06/30 03:16:46;;;;;;;0.00;0.00;;;;;;;;;;5089825;28;20254;-82
2023/06/30 03:19:14;;;;;;;0.05;0.05;;;;;;;;;;5089903;28;20573;-82
2023/06/30 03:21:40;;;;;;;0.00;0.00;;;;;;;;;;5088605;28;20241;-82
2023/06/30 03:24:08;;;;;;;0.00;0.00;;;;;;;;;;5090758;28;20214;-82
2023/06/30 03:26:34;;;;;;;0.00;0.00;;;;;;;;;;5088018;28;20297;-82
2023/06/30 03:29:01;;;;;;;0.00;0.00;;;;;;;;;;5091347;28;20233;-82
2023/06/30 03:31:27;;;;;;;0.00;0.00;;;;;;;;;;5086498;28;20253;-82
2023/06/30 03:33:53;;;;;;;0.00;0.00;;;;;;;;;;5092153;28;20242;-82
2023/06/30 03:36:20;;;;;;;0.00;0.00;;;;;;;;;;5085525;28;20242;-82
2023/06/30 03:38:46;;;;;;;0.00;0.00;;;;;;;;;;5093420;28;20231;-82
2023/06/30 03:41:14;;;;;;;0.00;0.00;;;;;;;;;;5084789;28;20305;-82
2023/06/30 03:43:40;;;;;;;0.00;0.00;;;;;;;;;;5094153;28;20227;-82
2023/06/30 03:46:06;;;;;;;0.00;0.00;;;;;;;;;;5084088;28;20246;-82
2023/06/30 03:48:33;;;;;;;0.00;0.00;;;;;;;;;;5094494;28;20259;-82
2023/06/30 03:50:59;;;;;;;0.00;0.00;;;;;;;;;;5082579;28;20250;-82
2023/06/30 03:53:25;;;;;;;0.00;0.00;;;;;;;;;;5095814;28;20207;-82
2023/06/30 03:55:52;;;;;;;0.00;0.00;;;;;;;;;;5081925;28;20239;-82
2023/06/30 03:58:19;;;;;;;0.00;0.00;;;;;;;;;;5096721;28;20227;-82
2023/06/30 04:00:46;;;;;;;0.00;0.00;;;;;;;;;;5081282;28;20302;-83
2023/06/30 04:03:12;;;;;;;0.00;0.00;;;;;;;;;;5098853;28;20394;-83
2023/06/30 04:05:39;;;;;;;0.00;0.00;;;;;;;;;;5079176;28;20251;-82
2023/06/30 04:08:05;;;;;;;0.05;0.05;;;;;;;;;;5100059;28;20199;-83
2023/06/30 04:10:32;;;;;;;0.00;0.00;;;;;;;;;;5080954;28;20250;-83
2023/06/30 04:12:58;;;;;;;0.00;0.00;;;;;;;;;;5100710;28;20266;-83
2023/06/30 04:15:26;;;;;;;0.00;0.00;;;;;;;;;;5079428;28;20231;-82
2023/06/30 04:17:52;;;;;;;0.28;0.28;;;;;;;;;;5099901;28;20236;-83
2023/06/30 04:20:19;;;;;;;0.47;0.47;;;;;;;;;;5079082;28;20242;-83
2023/06/30 04:22:45;;;;;;;0.00;0.00;;;;;;;;;;5102312;28;20204;-84
2023/06/30 04:25:12;;;;;;;0.10;0.10;;;;;;;;;;5077797;28;20396;-83
2023/06/30 04:27:38;;;;;;;0.00;0.00;;;;;;;;;;5102235;28;20206;-82
2023/06/30 04:30:05;;;;;;;0.00;0.00;;;;;;;;;;5086103;28;20248;-81
2023/06/30 04:32:33;;;;;;;0.00;0.00;;;;;;;;;;5091803;28;20554;-82
2023/06/30 04:34:59;;;;;;;0.00;0.00;;;;;;;;;;5086371;28;20231;-82
2023/06/30 04:37:28;;;;;;;0.10;0.10;;;;;;;;;;5091135;28;20250;-82
2023/06/30 04:39:55;;;;;;;0.00;0.00;;;;;;;;;;5087092;28;20206;-83
2023/06/30 04:42:21;;;;;;;0.00;0.00;;;;;;;;;;5093253;28;20467;-82
2023/06/30 04:44:48;;;;;;;0.10;0.10;;;;;;;;;;5088090;28;20537;-83
2023/06/30 04:47:15;;;;;;;0.10;0.10;;;;;;;;;;5092620;28;20234;-83
2023/06/30 04:49:43;;;;;;;0.10;0.10;;;;;;;;;;5087143;28;20214;-83
2023/06/30 04:52:09;;;;;;;0.00;0.00;;;;;;;;;;5092259;28;20241;-83
2023/06/30 04:54:36;;;;;;;0.05;0.05;;;;;;;;;;5086371;28;20246;-83
2023/06/30 04:57:02;;;;;;;0.08;0.08;;;;;;;;;;5090531;28;20284;-83
2023/06/30 04:59:28;;;;;;;0.00;0.00;;;;;;;;;;5086565;28;20280;-82
2023/06/30 05:01:55;;;;;;;0.08;0.08;;;;;;;;;;5089213;28;20579;-83
2023/06/30 05:04:21;;;;;;;0.00;0.00;;;;;;;;;;5087495;28;20206;-83
2023/06/30 05:06:49;;;;;;;0.03;0.03;;;;;;;;;;5089029;28;20261;-82
2023/06/30 05:09:15;;;;;;;0.30;0.30;;;;;;;;;;5088305;28;20220;-83
2023/06/30 05:11:42;;;;;;;1.00;1.00;;;;;;;;;;5088246;28;20292;-83
2023/06/30 05:14:08;;;;;;;0.00;0.00;;;;;;;;;;5089614;28;20207;-83
2023/06/30 05:16:34;;;;;;;0.00;0.00;;;;;;;;;;5087116;28;20250;-83
2023/06/30 05:19:01;;;;;;;0.10;0.10;;;;;;;;;;5091291;28;20291;-83
2023/06/30 05:21:27;;;;;;;0.10;0.10;;;;;;;;;;5086670;28;20238;-83
2023/06/30 05:23:55;;;;;;;0.00;0.00;;;;;;;;;;5092725;28;20239;-83
2023/06/30 05:26:21;;;;;;;0.00;0.00;;;;;;;;;;5085068;28;20425;-84
2023/06/30 05:28:48;;;;;;;0.00;0.00;;;;;;;;;;5092162;28;20200;-83
2023/06/30 05:31:14;;;;;;;0.08;0.08;;;;;;;;;;5084200;28;20312;-83
2023/06/30 05:33:41;;;;;;;0.00;0.00;;;;;;;;;;5092850;28;20212;-83
2023/06/30 05:36:07;;;;;;;0.00;0.00;;;;;;;;;;5082462;28;20255;-84
2023/06/30 05:38:33;;;;;;;0.00;0.00;;;;;;;;;;5093423;28;20348;-84
2023/06/30 05:41:01;;;;;;;0.00;0.00;;;;;;;;;;5081991;28;20257;-83
2023/06/30 05:43:28;;;;;;;0.00;0.00;;;;;;;;;;5095096;28;20212;-84
2023/06/30 05:45:54;;;;;;;0.00;0.00;;;;;;;;;;5081251;28;20299;-83
2023/06/30 05:48:20;;;;;;;0.00;0.00;;;;;;;;;;5096190;28;20253;-83
2023/06/30 05:50:47;;;;;;;0.08;0.08;;;;;;;;;;5079606;28;20241;-85
2023/06/30 05:53:13;;;;;;;0.00;0.00;;;;;;;;;;5095295;28;20275;-84
2023/06/30 05:55:39;;;;;;;0.10;0.10;;;;;;;;;;5078638;28;20265;-84
2023/06/30 05:58:07;;;;;;;0.00;0.00;;;;;;;;;;5095577;28;20253;-84
2023/06/30 06:00:33;;;;;;;0.00;0.00;;;;;;;;;;5076339;28;20321;-84
2023/06/30 06:03:01;;;;;;;0.10;0.10;;;;;;;;;;5097245;28;20211;-83
2023/06/30 06:05:27;;;;;;;0.00;0.00;;;;;;;;;;5076683;28;20247;-84
2023/06/30 06:07:53;;;;;;;0.00;0.00;;;;;;;;;;5096901;28;20202;-83
2023/06/30 06:10:20;;;;;;;0.00;0.00;;;;;;;;;;5074590;28;20211;-84
2023/06/30 06:12:46;;;;;;;0.10;0.10;;;;;;;;;;5099467;28;20231;-84
2023/06/30 06:15:14;;;;;;;0.00;0.00;;;;;;;;;;5077787;28;20206;-82
2023/06/30 06:17:40;;;;;;;0.43;0.43;;;;;;;;;;5104230;28;20290;-84
2023/06/30 06:20:07;;;;;;;0.00;0.00;;;;;;;;;;5089729;28;20209;-84
2023/06/30 06:22:34;;;;;;;0.00;0.00;;;;;;;;;;5056662;28;20212;-84
2023/06/30 06:25:00;;;;;;;0.00;0.00;;;;;;;;;;5068186;28;20218;-84
2023/06/30 06:27:28;;;;;;;0.00;0.00;;;;;;;;;;5090408;28;20451;-71
2023/06/30 06:29:55;;;;;;;0.00;0.00;;;;;;;;;;5067264;28;20215;-71
2023/06/30 06:32:22;;;;;;;0.00;0.00;;;;;;;;;;5089282;28;20238;-71
2023/06/30 06:34:49;;;;;;;0.00;0.00;;;;;;;;;;5066929;28;20238;-71
2023/06/30 06:37:16;;;;;;;0.00;0.00;;;;;;;;;;5089075;28;20353;-71
2023/06/30 06:39:42;;;;;;;0.00;0.00;;;;;;;;;;5067032;28;20239;-71
2023/06/30 06:42:09;;;;;;;0.10;0.10;;;;;;;;;;5089019;28;20262;-71
2023/06/30 06:44:35;;;;;;;0.00;0.00;;;;;;;;;;5066655;28;20208;-72
2023/06/30 06:47:20;;;;;;;0.10;0.10;;;;;;;;;;5087170;28;20412;-71
2023/06/30 06:49:48;;;;;;;0.00;0.00;;;;;;;;;;5066480;28;20228;-71
2023/06/30 06:52:14;;;;;;;0.32;0.32;;;;;;;;;;5088785;28;20246;-71
2023/06/30 06:54:41;;;;;;;0.10;0.10;;;;;;;;;;5066466;28;20217;-71
2023/06/30 06:57:07;;;;;;;0.00;0.00;;;;;;;;;;5088450;28;20341;-71
2023/06/30 06:59:33;;;;;;;0.00;0.00;;;;;;;;;;5066482;28;20267;-71
2023/06/30 07:02:00;;;;;;;0.00;0.00;;;;;;;;;;5086282;28;20305;-71
2023/06/30 07:04:26;;;;;;;0.00;0.00;;;;;;;;;;5067925;28;20512;-71
2023/06/30 07:06:54;;;;;;;0.00;0.00;;;;;;;;;;5084320;28;20478;-71
2023/06/30 07:09:20;;;;;;;0.10;0.10;;;;;;;;;;5069836;28;20280;-71
2023/06/30 07:11:47;;;;;;;0.00;0.00;;;;;;;;;;5082651;28;20313;-71
2023/06/30 07:14:14;;;;;;;0.00;0.00;;;;;;;;;;5071528;28;20196;-71
2023/06/30 07:16:40;;;;;;;0.80;0.80;;;;;;;;;;5080739;28;20305;-69
2023/06/30 07:19:06;;;;;;;0.08;0.08;;;;;;;;;;5072900;28;20258;-69
2023/06/30 07:21:33;;;;;;;0.52;0.52;;;;;;;;;;5078662;28;20444;-70
2023/06/30 07:24:00;;;;;;;0.00;0.00;;;;;;;;;;5074112;28;20452;-69
2023/06/30 07:26:27;;;;;;;0.00;0.00;;;;;;;;;;5076943;28;20263;-70
2023/06/30 07:28:53;;;;;;;0.00;0.00;;;;;;;;;;5076502;28;20204;-70
2023/06/30 07:31:19;;;;;;;0.00;0.00;;;;;;;;;;5074784;28;20250;-70
2023/06/30 07:33:46;;;;;;;0.10;0.10;;;;;;;;;;5078685;28;20205;-70
2023/06/30 07:36:12;;;;;;;0.00;0.00;;;;;;;;;;5072826;28;20249;-70
2023/06/30 07:38:38;;;;;;;0.15;0.15;;;;;;;;;;5080224;28;20302;-71
2023/06/30 07:41:06;;;;;;;0.08;0.08;;;;;;;;;;5070484;28;20246;-70
2023/06/30 07:43:33;;;;;;;0.00;0.00;;;;;;;;;;5082510;28;20442;-70
2023/06/30 07:45:59;;;;;;;0.10;0.10;;;;;;;;;;5069238;28;20239;-71
2023/06/30 07:48:25;;;;;;;0.00;0.00;;;;;;;;;;5084058;28;20239;-71
2023/06/30 07:50:52;;;;;;;0.00;0.00;;;;;;;;;;5067254;28;20631;-70
2023/06/30 07:53:20;;;;;;;0.00;0.00;;;;;;;;;;5085679;28;20263;-71
2023/06/30 07:55:47;;;;;;;0.00;0.00;;;;;;;;;;5065565;28;20249;-71
2023/06/30 07:58:14;;;;;;;0.00;0.00;;;;;;;;;;5086950;28;20259;-71
2023/06/30 08:00:41;;;;;;;0.15;0.15;;;;;;;;;;5063794;28;20310;-70
2023/06/30 08:03:07;;;;;;;0.25;0.25;;;;;;;;;;5088405;28;20259;-71
2023/06/30 08:05:34;;;;;;;0.10;0.10;;;;;;;;;;5061837;28;20314;-70
2023/06/30 08:08:00;;;;;;;0.00;0.00;;;;;;;;;;5090402;28;20223;-71
2023/06/30 08:10:26;;;;;;;0.00;0.00;;;;;;;;;;5059667;28;20212;-71
2023/06/30 08:12:53;;;;;;;0.68;0.68;;;;;;;;;;5092157;28;20271;-71
2023/06/30 08:15:20;;;;;;;0.00;0.00;;;;;;;;;;5057712;28;20244;-71
2023/06/30 08:17:47;;;;;;;0.32;0.32;;;;;;;;;;5093852;28;20246;-71
2023/06/30 08:20:13;;;;;;;0.00;0.00;;;;;;;;;;5056115;28;20236;-71
2023/06/30 08:22:39;;;;;;;0.00;0.00;;;;;;;;;;5095533;28;20208;-71
2023/06/30 08:25:07;;;;;;;0.10;0.10;;;;;;;;;;5064643;28;20232;-70
2023/06/30 08:27:33;;;;;;;0.05;0.05;;;;;;;;;;5053612;28;20211;-74
2023/06/30 08:29:59;;;;;;;0.00;0.00;;;;;;;;;;5064588;28;20226;-74
2023/06/30 08:32:27;;;;;;;0.00;0.00;;;;;;;;;;5086907;28;20250;-74
2023/06/30 08:34:54;;;;;;;0.00;0.00;;;;;;;;;;5064159;28;20222;-74
2023/06/30 08:37:20;;;;;;;0.10;0.10;;;;;;;;;;5086740;28;20490;-74
2023/06/30 08:39:46;;;;;;;0.00;0.00;;;;;;;;;;5064649;28;20290;-73
2023/06/30 08:42:14;;;;;;;0.00;0.00;;;;;;;;;;5086930;28;20306;-74
2023/06/30 08:44:43;;;;;;;0.70;0.70;;;;;;;;;;5064708;28;20231;-74
2023/06/30 08:47:11;;;;;;;0.00;0.00;;;;;;;;;;5086644;28;20245;-73
2023/06/30 08:49:39;;;;;;;0.00;0.00;;;;;;;;;;5064260;28;20238;-74
2023/06/30 08:52:06;;;;;;;1.30;1.30;;;;;;;;;;5085840;28;20431;-74
2023/06/30 08:54:33;;;;;;;0.00;0.00;;;;;;;;;;5064795;28;20434;-74
2023/06/30 08:57:01;;;;;;;0.10;0.10;;;;;;;;;;5084104;28;20313;-78
2023/06/30 08:59:27;;;;;;;0.00;0.00;;;;;;;;;;5065479;28;20538;-75
2023/06/30 09:01:55;;;;;;;0.00;0.00;;;;;;;;;;5082407;28;20280;-78
2023/06/30 09:04:22;;;;;;;0.00;0.00;;;;;;;;;;5067458;28;20231;-75
2023/06/30 09:06:50;;;;;;;0.00;0.00;;;;;;;;;;5080698;28;20242;-73
2023/06/30 09:09:21;;;;;;;0.00;0.00;;;;;;;;;;5068761;28;20215;-76
2023/06/30 09:11:49;;;;;;;0.00;0.00;;;;;;;;;;5080144;28;20242;-79
2023/06/30 09:14:16;;;;;;;0.40;0.40;;;;;;;;;;5068722;28;20437;-72
2023/06/30 09:16:43;;;;;;;0.00;0.00;;;;;;;;;;5078908;28;20246;-74
2023/06/30 09:19:10;;;;;;;0.00;0.00;;;;;;;;;;5070641;28;20224;-76
2023/06/30 09:21:36;;;;;;;0.20;0.20;;;;;;;;;;5077409;28;20297;-75
2023/06/30 09:24:04;;;;;;;0.00;0.00;;;;;;;;;;5072311;28;20576;-74
2023/06/30 09:26:32;;;;;;;0.00;0.00;;;;;;;;;;5075741;28;20344;-72
2023/06/30 09:28:59;;;;;;;0.00;0.00;;;;;;;;;;5073434;28;20200;-72
2023/06/30 09:31:28;;;;;;;0.00;0.00;;;;;;;;;;5073978;28;20239;-73
2023/06/30 09:34:05;;;;;;;0.00;0.00;;;;;;;;;;5074364;28;20275;-74
2023/06/30 09:36:32;;;;;;;0.00;0.00;;;;;;;;;;5076135;28;20265;-72
2023/06/30 09:38:58;;;;;;;0.68;0.68;;;;;;;;;;5073263;28;20291;-72
2023/06/30 09:41:26;;;;;;;0.00;0.00;;;;;;;;;;5073754;28;20332;-72
2023/06/30 09:43:57;;;;;;;0.28;0.28;;;;;;;;;;5075142;28;20204;-71
2023/06/30 09:46:23;;;;;;;0.00;0.00;;;;;;;;;;5073402;28;20498;-78
2023/06/30 09:48:53;;;;;;;0.00;0.00;;;;;;;;;;5074908;28;20238;-73
2023/06/30 09:51:21;;;;;;;0.00;0.00;;;;;;;;;;5072550;28;20310;-74
2023/06/30 09:53:47;;;;;;;0.00;0.00;;;;;;;;;;5076151;28;20275;-74
2023/06/30 09:56:19;;;;;;;0.00;0.00;;;;;;;;;;5071062;28;20238;-72
2023/06/30 09:58:47;;;;;;;0.00;0.00;;;;;;;;;;5076502;28;20403;-73
2023/06/30 10:01:18;;;;;;;0.10;0.10;;;;;;;;;;5070324;28;20301;-72
2023/06/30 10:03:48;;;;;;;0.00;0.00;;;;;;;;;;5076605;28;20259;-72
2023/06/30 10:06:15;;;;;;;0.10;0.10;;;;;;;;;;5071097;28;20250;-75
2023/06/30 10:08:41;;;;;;;0.00;0.00;;;;;;;;;;5077236;28;20222;-74
2023/06/30 10:11:08;;;;;;;0.38;0.38;;;;;;;;;;5069253;28;20239;-74
2023/06/30 10:13:35;;;;;;;1.23;1.15;;;;;;;;;;5079332;28;20207;-77
2023/06/30 10:16:04;;;;;;;0.00;0.00;;;;;;;;;;5067319;28;20239;-73
2023/06/30 10:18:31;;;;;;;0.68;0.68;;;;;;;;;;5080723;28;20457;-75
2023/06/30 10:20:58;;;;;;;0.40;0.40;;;;;;;;;;5066151;28;20301;-73
2023/06/30 10:23:25;;;;;;;0.00;0.00;;;;;;;;;;5082000;28;20218;-75
2023/06/30 10:25:51;;;;;;;0.05;0.05;;;;;;;;;;5064479;28;20276;-74
2023/06/30 10:28:17;;;;;;;0.00;0.00;;;;;;;;;;5083836;28;20231;-74
2023/06/30 10:30:44;;;;;;;0.10;0.10;;;;;;;;;;5062258;28;20305;-73
2023/06/30 10:33:12;;;;;;;0.00;0.00;;;;;;;;;;5085681;28;20271;-72
2023/06/30 10:35:38;;;;;;;0.00;0.00;;;;;;;;;;5061062;28;20253;-75
2023/06/30 10:38:05;;;;;;;0.00;0.00;;;;;;;;;;5087093;28;20275;-74
2023/06/30 10:40:32;;;;;;;0.10;0.10;;;;;;;;;;5058759;28;20246;-73
2023/06/30 10:42:59;;;;;;;0.03;0.03;;;;;;;;;;5088662;28;20262;-73
2023/06/30 10:45:29;;;;;;;0.10;0.10;;;;;;;;;;5057500;28;20585;-74
2023/06/30 10:47:55;;;;;;;0.40;0.40;;;;;;;;;;5089613;28;20203;-76
2023/06/30 10:50:24;;;;;;;0.00;0.00;;;;;;;;;;5056673;28;20200;-74
2023/06/30 10:52:51;;;;;;;0.10;0.10;;;;;;;;;;5090772;28;20210;-75
2023/06/30 10:55:20;;;;;;;0.00;0.00;;;;;;;;;;5055195;28;20204;-77
2023/06/30 10:57:49;;;;;;;0.00;0.00;;;;;;;;;;5091585;28;20212;-72
2023/06/30 11:00:16;;;;;;;0.00;0.00;;;;;;;;;;5058320;28;20232;-73
2023/06/30 11:02:47;;;;;;;0.82;0.82;;;;;;;;;;5096151;28;20258;-74
2023/06/30 11:05:20;;;;;;;0.10;0.10;;;;;;;;;;5058000;28;20259;-75
2023/06/30 11:07:49;;;;;;;0.00;0.00;;;;;;;;;;5094856;28;20204;-76
2023/06/30 11:10:25;;;;;;;0.05;0.05;;;;;;;;;;5057832;28;20209;-77
2023/06/30 11:12:53;;;;;;;3.05;2.95;;;;;;;;;;5093596;28;20274;-76
2023/06/30 11:15:26;;;;;;;0.20;0.20;;;;;;;;;;5059216;28;20271;-72
2023/06/30 11:18:00;;;;;;;0.30;0.30;;;;;;;;;;5092898;28;20250;-74
2023/06/30 11:20:27;;;;;;;0.00;0.00;;;;;;;;;;5060983;28;20224;-74
2023/06/30 11:22:57;;;;;;;0.20;0.20;;;;;;;;;;5093030;28;20430;-74
2023/06/30 11:25:24;;;;;;;0.22;0.20;;;;;;;;;;5060394;28;20208;-73
2023/06/30 11:27:51;;;;;;;0.08;0.08;;;;;;;;;;5093510;28;20212;-74
2023/06/30 11:30:18;;;;;;;0.50;0.50;;;;;;;;;;5058479;28;20200;-77
2023/06/30 11:32:45;;;;;;;0.00;0.00;;;;;;;;;;5095313;28;20246;-75
2023/06/30 11:35:12;;;;;;;0.00;0.00;;;;;;;;;;5056994;28;20196;-75
2023/06/30 11:37:39;;;;;;;0.17;0.17;;;;;;;;;;5096681;28;20229;-76
2023/06/30 11:40:07;;;;;;;0.00;0.00;;;;;;;;;;5065382;28;20224;-76
2023/06/30 11:42:36;;;;;;;2.28;1.55;;;;;;;;;;5054353;28;20211;-77
2023/06/30 11:45:04;;;;;;;7.20;6.65;;;;;;;;;;5065791;28;20216;-79
2023/06/30 11:47:31;;;;;;;0.73;0.73;;;;;;;;;;5071182;28;20246;-77
2023/06/30 11:49:57;;;;;;;0.30;0.30;;;;;;;;;;5065441;28;20200;-79
2023/06/30 11:52:24;;;;;;;0.00;0.00;;;;;;;;;;5071000;28;20248;-77
2023/06/30 11:54:50;;;;;;;0.00;0.00;;;;;;;;;;5065635;28;20399;-78
2023/06/30 11:57:18;;;;;;;0.00;0.00;;;;;;;;;;5070725;28;20416;-78
2023/06/30 11:59:44;;;;;;;0.30;0.30;;;;;;;;;;5065458;28;20420;-78
2023/06/30 12:02:11;;;;;;;3.80;3.50;;;;;;;;;;5070707;28;20499;-78
2023/06/30 12:04:37;;;;;;;0.05;0.05;;;;;;;;;;5065307;28;20447;-79
2023/06/30 12:07:05;;;;;;;0.10;0.10;;;;;;;;;;5070020;28;20250;-79
2023/06/30 12:09:31;;;;;;;0.00;0.00;;;;;;;;;;5065097;28;20525;-79
2023/06/30 12:12:00;;;;;;;0.00;0.00;;;;;;;;;;5068457;28;20240;-80
2023/06/30 12:14:28;;;;;;;0.20;0.20;;;;;;;;;;5066118;28;20204;-79
2023/06/30 12:16:54;;;;;;;0.00;0.00;;;;;;;;;;5068736;28;20331;-81
2023/06/30 12:19:24;;;;;;;0.75;0.75;;;;;;;;;;5066719;28;20421;-80
2023/06/30 12:21:51;;;;;;;0.00;0.00;;;;;;;;;;5068084;28;20289;-80
2023/06/30 12:24:18;;;;;;;0.00;0.00;;;;;;;;;;5067123;28;20258;-81
2023/06/30 12:26:44;;;;;;;0.10;0.10;;;;;;;;;;5067087;28;20234;-81
2023/06/30 12:29:11;;;;;;;0.00;0.00;;;;;;;;;;5067651;28;20279;-81
2023/06/30 12:31:41;;;;;;;0.00;0.00;;;;;;;;;;5066042;28;20562;-81
2023/06/30 12:34:07;;;;;;;0.00;0.00;;;;;;;;;;5068207;28;20204;-80
2023/06/30 12:36:34;;;;;;;0.00;0.00;;;;;;;;;;5065568;28;20262;-81
2023/06/30 12:39:00;;;;;;;0.00;0.00;;;;;;;;;;5068727;28;20243;-80
2023/06/30 12:41:26;;;;;;;0.00;0.00;;;;;;;;;;5064533;28;20274;-85
2023/06/30 12:43:53;;;;;;;0.00;0.00;;;;;;;;;;5069733;28;20238;-81
2023/06/30 12:46:20;;;;;;;0.10;0.10;;;;;;;;;;5063447;28;20246;-79
2023/06/30 12:48:47;;;;;;;0.00;0.00;;;;;;;;;;5070448;28;20271;-79
2023/06/30 12:51:14;;;;;;;0.65;0.65;;;;;;;;;;5062571;28;20250;-80
2023/06/30 12:53:41;;;;;;;0.00;0.00;;;;;;;;;;5071051;28;20235;-80
2023/06/30 12:56:07;;;;;;;0.20;0.20;;;;;;;;;;5061484;28;20253;-79
2023/06/30 12:58:34;;;;;;;0.00;0.00;;;;;;;;;;5072026;28;20514;-80
2023/06/30 13:01:03;;;;;;;0.00;0.00;;;;;;;;;;5060683;28;20242;-81
2023/06/30 13:03:32;;;;;;;0.00;0.00;;;;;;;;;;5072241;28;20211;-79
2023/06/30 13:06:00;;;;;;;0.00;0.00;;;;;;;;;;5060498;28;20590;-79
2023/06/30 13:08:26;;;;;;;0.00;0.00;;;;;;;;;;5072712;28;20208;-79
2023/06/30 13:10:52;;;;;;;0.00;0.00;;;;;;;;;;5059459;28;20246;-79
2023/06/30 13:13:19;;;;;;;0.10;0.10;;;;;;;;;;5073719;28;20207;-80
2023/06/30 13:15:45;;;;;;;0.00;0.00;;;;;;;;;;5058594;28;20560;-79
2023/06/30 13:18:12;;;;;;;0.00;0.00;;;;;;;;;;5074521;28;20454;-80
2023/06/30 13:20:38;;;;;;;0.03;0.03;;;;;;;;;;5057689;28;20241;-79
2023/06/30 13:23:06;;;;;;;0.10;0.10;;;;;;;;;;5075246;28;20282;-79
2023/06/30 13:25:32;;;;;;;0.05;0.05;;;;;;;;;;5056672;28;20248;-79
2023/06/30 13:27:59;;;;;;;0.10;0.10;;;;;;;;;;5076124;28;20241;-79
2023/06/30 13:30:25;;;;;;;0.00;0.00;;;;;;;;;;5055850;28;20203;-80
2023/06/30 13:32:51;;;;;;;0.10;0.10;;;;;;;;;;5077060;28;20391;-80
2023/06/30 13:35:18;;;;;;;0.10;0.10;;;;;;;;;;5054921;28;20404;-80
2023/06/30 13:37:45;;;;;;;0.00;0.00;;;;;;;;;;5077984;28;20274;-74
2023/06/30 13:40:13;;;;;;;0.10;0.10;;;;;;;;;;5053767;28;20447;-74
2023/06/30 13:42:39;;;;;;;0.10;0.10;;;;;;;;;;5078590;28;20283;-74
2023/06/30 13:45:06;;;;;;;0.05;0.05;;;;;;;;;;5063381;28;20207;-74
2023/06/30 13:47:34;;;;;;;0.00;0.00;;;;;;;;;;5068834;28;20220;-74
2023/06/30 13:50:00;;;;;;;0.10;0.10;;;;;;;;;;5063643;28;20227;-74
2023/06/30 13:52:27;;;;;;;0.00;0.00;;;;;;;;;;5085707;28;20241;-74
2023/06/30 13:54:53;;;;;;;0.00;0.00;;;;;;;;;;5063610;28;20279;-74
2023/06/30 13:57:21;;;;;;;0.10;0.10;;;;;;;;;;5085763;28;20309;-75
2023/06/30 13:59:48;;;;;;;0.00;0.00;;;;;;;;;;5063451;28;20481;-74
2023/06/30 14:02:14;;;;;;;0.10;0.10;;;;;;;;;;5085609;28;20321;-74
2023/06/30 14:04:40;;;;;;;0.10;0.10;;;;;;;;;;5063199;28;20272;-74
2023/06/30 14:07:07;;;;;;;0.10;0.10;;;;;;;;;;5085255;28;20304;-74
2023/06/30 14:09:33;;;;;;;0.10;0.10;;;;;;;;;;5063395;28;20219;-74
2023/06/30 14:12:00;;;;;;;0.20;0.20;;;;;;;;;;5083296;28;20240;-74
2023/06/30 14:14:27;;;;;;;0.10;0.10;;;;;;;;;;5065120;28;20207;-74
2023/06/30 14:16:54;;;;;;;0.57;0.57;;;;;;;;;;5081492;28;20242;-74
2023/06/30 14:19:20;;;;;;;0.00;0.00;;;;;;;;;;5067112;28;20548;-74
2023/06/30 14:21:46;;;;;;;0.00;0.00;;;;;;;;;;5079600;28;20309;-74
2023/06/30 14:24:13;;;;;;;0.00;0.00;;;;;;;;;;5068915;28;20276;-74
2023/06/30 14:26:39;;;;;;;0.10;0.10;;;;;;;;;;5077450;28;20505;-73
2023/06/30 14:29:05;;;;;;;0.05;0.05;;;;;;;;;;5070865;28;20403;-75
2023/06/30 14:31:33;;;;;;;0.05;0.05;;;;;;;;;;5075261;28;20300;-75
2023/06/30 14:34:01;;;;;;;0.10;0.10;;;;;;;;;;5074196;28;20443;-74
2023/06/30 14:36:27;;;;;;;1.08;1.08;;;;;;;;;;5078242;28;20247;-75
2023/06/30 14:38:54;;;;;;;0.10;0.10;;;;;;;;;;5077852;28;20236;-74
2023/06/30 14:41:20;;;;;;;0.10;0.10;;;;;;;;;;5075740;28;20242;-75